createdAt,value
2018-03-03T00:02:18.305Z,76.87
2018-03-03T00:04:44.927Z,68.72
2018-03-03T00:07:11.589Z,70.43
2018-03-03T00:09:38.197Z,77.97
2018-03-03T00:12:04.821Z,78.20
2018-03-03T00:14:31.428Z,64.72
2018-03-03T00:16:58.036Z,67.25
2018-03-03T00:19:24.669Z,69.45
2018-03-03T00:21:51.323Z,70.68
2018-03-03T00:24:17.933Z,72.32
2018-03-03T00:26:44.560Z,75.00
2018-03-03T00:29:11.241Z,81.18
2018-03-03T00:31:37.856Z,72.25
2018-03-03T00:34:04.481Z,72.78
2018-03-03T00:36:31.157Z,69.90
2018-03-03T00:38:57.777Z,71.47
2018-03-03T00:41:24.397Z,88.03
2018-03-03T00:43:51.010Z,69.28
2018-03-03T00:46:17.712Z,71.32
2018-03-03T00:48:44.354Z,71.93
2018-03-03T00:51:10.960Z,73.45
2018-03-03T00:53:37.581Z,74.57
2018-03-03T00:56:04.316Z,75.90
2018-03-03T00:58:31.008Z,77.75
2018-03-03T01:00:57.649Z,70.30
2018-03-03T01:03:24.277Z,77.45
2018-03-03T01:05:50.928Z,72.15
2018-03-03T01:08:17.619Z,86.28
2018-03-03T01:10:44.240Z,80.72
2018-03-03T01:13:10.857Z,74.47
2018-03-03T01:15:37.465Z,80.60
2018-03-03T01:18:04.089Z,78.78
2018-03-03T01:20:30.703Z,73.75
2018-03-03T01:22:57.406Z,78.18
2018-03-03T01:25:24.150Z,79.80
2018-03-03T01:27:50.761Z,74.70
2018-03-03T01:30:17.369Z,78.25
2018-03-03T01:32:44.007Z,77.70
2018-03-03T01:35:10.701Z,81.12
2018-03-03T01:37:37.311Z,85.80
2018-03-03T01:40:03.942Z,82.68
2018-03-03T01:42:30.626Z,92.37
2018-03-03T01:44:57.261Z,90.45
2018-03-03T01:47:24.006Z,93.50
2018-03-03T01:49:50.640Z,91.85
2018-03-03T01:52:17.249Z,86.05
2018-03-03T01:54:43.924Z,98.43
2018-03-03T01:57:10.577Z,87.00
2018-03-03T01:59:37.229Z,90.78
2018-03-03T02:02:03.905Z,87.12
2018-03-03T02:04:30.569Z,85.47
2018-03-03T02:06:57.230Z,95.00
2018-03-03T02:09:23.898Z,94.07
2018-03-03T02:11:50.644Z,104.25
2018-03-03T02:14:17.300Z,89.05
2018-03-03T02:16:44.020Z,93.50
2018-03-03T02:19:10.677Z,80.70
2018-03-03T02:21:37.411Z,82.72
2018-03-03T02:24:04.145Z,101.05
2018-03-03T02:26:30.748Z,91.15
2018-03-03T02:28:57.404Z,89.37
2018-03-03T02:31:24.092Z,81.55
2018-03-03T02:33:50.750Z,87.80
2018-03-03T02:36:17.405Z,84.78
2018-03-03T02:38:44.080Z,86.25
2018-03-03T02:41:10.822Z,87.18
2018-03-03T02:43:37.485Z,93.85
2018-03-03T02:46:04.206Z,87.82
2018-03-03T02:48:30.864Z,89.97
2018-03-03T02:50:57.591Z,81.03
2018-03-03T02:53:24.264Z,82.22
2018-03-03T02:55:50.920Z,86.57
2018-03-03T02:58:17.585Z,83.10
2018-03-03T03:00:44.264Z,86.22
2018-03-03T03:03:10.915Z,77.20
2018-03-03T03:05:37.568Z,86.18
2018-03-03T03:08:04.265Z,93.68
2018-03-03T03:10:31.339Z,85.47
2018-03-03T03:12:57.996Z,84.47
2018-03-03T03:15:24.668Z,93.20
2018-03-03T03:17:51.326Z,87.00
2018-03-03T03:20:18.073Z,92.12
2018-03-03T03:22:44.792Z,83.25
2018-03-03T03:25:11.449Z,86.50
2018-03-03T03:27:38.108Z,84.18
2018-03-03T03:30:04.829Z,82.05
2018-03-03T03:32:31.488Z,76.35
2018-03-03T03:34:58.212Z,84.55
2018-03-03T03:37:24.961Z,91.97
2018-03-03T03:39:51.611Z,87.85
2018-03-03T03:42:18.340Z,79.53
2018-03-03T03:44:45.004Z,85.22
2018-03-03T03:47:11.716Z,87.88
2018-03-03T03:49:38.461Z,84.70
2018-03-03T03:52:05.132Z,82.03
2018-03-03T03:54:31.841Z,82.85
2018-03-03T03:56:58.500Z,83.82
2018-03-03T03:59:25.173Z,77.10
2018-03-03T04:01:51.828Z,79.22
2018-03-03T04:04:18.480Z,91.75
2018-03-03T04:06:45.159Z,93.25
2018-03-03T04:09:11.818Z,88.82
2018-03-03T04:11:38.519Z,90.72
2018-03-03T04:14:05.192Z,83.55
2018-03-03T04:16:31.846Z,85.18
2018-03-03T04:18:58.492Z,80.30
2018-03-03T04:21:25.283Z,91.57
2018-03-03T04:23:51.932Z,74.93
2018-03-03T04:26:18.590Z,77.78
2018-03-03T04:28:45.402Z,88.50
2018-03-03T04:31:12.063Z,93.65
2018-03-03T04:33:38.720Z,87.32
2018-03-03T04:36:05.388Z,83.05
2018-03-03T04:38:32.045Z,92.20
2018-03-03T04:40:58.704Z,88.22
2018-03-03T04:43:25.384Z,83.32
2018-03-03T04:45:52.040Z,103.85
2018-03-03T04:48:18.700Z,95.85
2018-03-03T04:50:45.376Z,105.90
2018-03-03T04:53:12.034Z,95.87
2018-03-03T04:55:38.692Z,75.75
2018-03-03T04:58:05.355Z,77.93
2018-03-03T05:00:37.957Z,93.53
2018-03-03T05:03:10.488Z,88.18
2018-03-03T05:05:58.044Z,93.50
2018-03-03T05:08:24.703Z,86.50
2018-03-03T05:10:54.413Z,85.78
2018-03-03T05:13:26.795Z,82.45
2018-03-03T05:16:08.331Z,76.60
2018-03-03T05:18:40.592Z,88.25
2018-03-03T05:21:25.084Z,86.90
2018-03-03T05:23:57.495Z,73.40
2018-03-03T05:26:29.963Z,69.55
2018-03-03T05:29:02.376Z,75.22
2018-03-03T05:31:34.772Z,87.55
2018-03-03T05:34:07.200Z,79.37
2018-03-03T05:36:43.768Z,84.40
2018-03-03T05:39:16.355Z,91.22
2018-03-03T05:41:48.707Z,73.25
2018-03-03T05:44:21.196Z,94.87
2018-03-03T05:46:53.768Z,82.45
2018-03-03T05:49:26.251Z,77.97
2018-03-03T05:51:58.776Z,89.07
2018-03-03T05:54:45.315Z,82.70
2018-03-03T05:57:17.512Z,86.80
2018-03-03T05:59:59.870Z,96.20
2018-03-03T06:02:43.144Z,82.60
2018-03-03T06:05:24.693Z,82.53
2018-03-03T06:08:12.247Z,85.55
2018-03-03T06:10:42.351Z,87.03
2018-03-03T06:13:09.095Z,79.07
2018-03-03T06:15:35.752Z,84.85
2018-03-03T06:18:02.496Z,89.07
2018-03-03T06:20:29.224Z,83.82
2018-03-03T06:22:55.885Z,89.00
2018-03-03T06:25:22.556Z,89.72
2018-03-03T06:27:49.217Z,89.13
2018-03-03T06:30:15.869Z,93.15
2018-03-03T06:32:42.627Z,79.93
2018-03-03T06:35:09.366Z,90.22
2018-03-03T06:37:36.020Z,83.57
2018-03-03T06:40:02.740Z,85.93
2018-03-03T06:42:29.396Z,80.12
2018-03-03T06:44:56.128Z,82.82
2018-03-03T06:47:22.859Z,84.43
2018-03-03T06:49:49.604Z,83.80
2018-03-03T06:52:16.266Z,89.62
2018-03-03T06:54:42.941Z,77.10
2018-03-03T06:57:09.592Z,81.63
2018-03-03T06:59:36.240Z,76.07
2018-03-03T07:02:02.907Z,86.68
2018-03-03T07:04:29.646Z,90.93
2018-03-03T07:06:56.297Z,93.53
2018-03-03T07:09:22.972Z,102.40
2018-03-03T07:11:49.663Z,96.50
2018-03-03T07:14:16.321Z,88.45
2018-03-03T07:16:43.053Z,82.50
2018-03-03T07:19:09.700Z,77.30
2018-03-03T07:21:36.352Z,83.03
2018-03-03T07:24:03.070Z,85.22
2018-03-03T07:26:29.916Z,89.60
2018-03-03T07:28:56.572Z,85.53
2018-03-03T07:31:23.244Z,75.85
2018-03-03T07:33:49.895Z,80.93
2018-03-03T07:36:16.549Z,75.40
2018-03-03T07:38:43.220Z,82.28
2018-03-03T07:41:09.954Z,71.20
2018-03-03T07:43:36.603Z,75.22
2018-03-03T07:46:03.277Z,82.28
2018-03-03T07:48:29.935Z,78.82
2018-03-03T07:50:56.587Z,84.28
2018-03-03T07:53:23.256Z,86.45
2018-03-03T07:55:49.993Z,95.65
2018-03-03T07:58:22.496Z,84.05
2018-03-03T08:00:49.212Z,78.93
2018-03-03T08:03:15.868Z,82.40
2018-03-03T08:05:42.592Z,89.35
2018-03-03T08:08:09.239Z,78.30
2018-03-03T08:10:35.973Z,87.37
2018-03-03T08:13:02.648Z,82.32
2018-03-03T08:15:29.356Z,93.57
2018-03-03T08:17:56.199Z,73.45
2018-03-03T08:20:22.937Z,81.10
2018-03-03T08:22:49.678Z,81.32
2018-03-03T08:25:16.429Z,81.10
2018-03-03T08:27:43.155Z,90.55
2018-03-03T08:30:09.812Z,86.68
2018-03-03T08:32:36.467Z,78.32
2018-03-03T08:35:03.136Z,88.30
2018-03-03T08:37:29.799Z,91.20
2018-03-03T08:39:56.455Z,87.97
2018-03-03T08:42:23.124Z,93.40
2018-03-03T08:44:49.783Z,82.88
2018-03-03T08:47:16.439Z,88.37
2018-03-03T08:49:43.112Z,73.57
2018-03-03T08:52:09.770Z,87.82
2018-03-03T08:54:36.498Z,92.12
2018-03-03T08:57:03.172Z,84.10
2018-03-03T08:59:29.829Z,85.00
2018-03-03T09:01:56.494Z,82.82
2018-03-03T09:04:23.312Z,88.45
2018-03-03T09:06:49.942Z,81.18
2018-03-03T09:09:16.644Z,87.68
2018-03-03T09:11:43.380Z,85.00
2018-03-03T09:14:10.127Z,85.78
2018-03-03T09:16:36.780Z,91.03
2018-03-03T09:19:03.457Z,94.62
2018-03-03T09:21:30.113Z,84.60
2018-03-03T09:23:56.889Z,87.03
2018-03-03T09:26:23.625Z,96.25
2018-03-03T09:28:50.369Z,95.95
2018-03-03T09:31:17.032Z,86.72
2018-03-03T09:33:43.707Z,83.35
2018-03-03T09:36:10.391Z,82.55
2018-03-03T09:38:37.045Z,87.45
2018-03-03T09:41:03.766Z,95.60
2018-03-03T09:43:30.513Z,91.20
2018-03-03T09:45:57.357Z,96.03
2018-03-03T09:48:24.098Z,83.82
2018-03-03T09:50:50.753Z,83.70
2018-03-03T09:53:17.481Z,81.87
2018-03-03T09:55:44.156Z,84.85
2018-03-03T09:58:10.819Z,89.82
2018-03-03T10:00:37.481Z,90.12
2018-03-03T10:03:04.152Z,83.32
2018-03-03T10:05:30.873Z,79.80
2018-03-03T10:07:57.644Z,82.05
2018-03-03T10:10:24.354Z,93.35
2018-03-03T10:12:51.102Z,90.05
2018-03-03T10:15:17.756Z,95.03
2018-03-03T10:17:44.488Z,89.68
2018-03-03T10:20:11.224Z,89.53
2018-03-03T10:22:37.876Z,87.32
2018-03-03T10:25:04.552Z,92.57
2018-03-03T10:27:31.212Z,86.10
2018-03-03T10:29:57.888Z,81.25
2018-03-03T10:32:24.729Z,90.07
2018-03-03T10:34:51.385Z,87.25
2018-03-03T10:37:18.036Z,84.95
2018-03-03T10:39:44.709Z,81.45
2018-03-03T10:42:11.370Z,93.93
2018-03-03T10:44:38.021Z,89.25
2018-03-03T10:47:04.683Z,95.80
2018-03-03T10:49:31.331Z,86.00
2018-03-03T10:51:58.048Z,92.20
2018-03-03T10:54:24.786Z,88.68
2018-03-03T10:56:51.440Z,92.28
2018-03-03T10:59:18.168Z,92.10
2018-03-03T11:01:44.840Z,81.87
2018-03-03T11:04:11.496Z,91.10
2018-03-03T11:06:38.148Z,77.55
2018-03-03T11:09:04.828Z,89.50
2018-03-03T11:11:31.481Z,86.80
2018-03-03T11:13:58.140Z,87.97
2018-03-03T11:16:24.819Z,97.30
2018-03-03T11:18:51.473Z,84.97
2018-03-03T11:21:18.128Z,85.12
2018-03-03T11:23:44.861Z,90.57
2018-03-03T11:26:11.605Z,93.97
2018-03-03T11:28:38.259Z,87.05
2018-03-03T11:31:04.984Z,88.25
2018-03-03T11:33:31.726Z,89.18
2018-03-03T11:35:58.470Z,90.43
2018-03-03T11:38:25.141Z,81.65
2018-03-03T11:40:51.795Z,91.72
2018-03-03T11:43:18.448Z,86.25
2018-03-03T11:45:45.116Z,77.45
2018-03-03T11:48:11.868Z,90.60
2018-03-03T11:50:38.529Z,84.57
2018-03-03T11:53:05.200Z,89.82
2018-03-03T11:55:31.856Z,92.75
2018-03-03T11:57:58.525Z,90.47
2018-03-03T12:00:25.188Z,96.55
2018-03-03T12:02:51.913Z,87.50
2018-03-03T12:05:18.579Z,91.45
2018-03-03T12:07:45.253Z,75.00
2018-03-03T12:10:11.935Z,93.18
2018-03-03T12:12:38.587Z,87.53
2018-03-03T12:15:05.256Z,82.78
2018-03-03T12:17:31.957Z,86.55
2018-03-03T12:19:58.614Z,93.35
2018-03-03T12:22:25.284Z,80.43
2018-03-03T12:24:51.972Z,79.37
2018-03-03T12:27:18.623Z,84.50
2018-03-03T12:29:45.303Z,86.37
2018-03-03T12:32:13.015Z,84.85
2018-03-03T12:34:39.760Z,87.25
2018-03-03T12:37:06.423Z,86.20
2018-03-03T12:39:33.239Z,91.82
2018-03-03T12:41:59.912Z,93.95
2018-03-03T12:44:26.826Z,86.65
2018-03-03T12:46:53.773Z,92.43
2018-03-03T12:49:21.230Z,87.25
2018-03-03T12:51:48.707Z,95.10
2018-03-03T12:54:17.431Z,92.45
2018-03-03T12:56:48.009Z,93.12
2018-03-03T12:59:15.774Z,100.62
2018-03-03T13:01:43.028Z,102.20
2018-03-03T13:04:10.639Z,104.90
2018-03-03T13:06:38.698Z,92.35
2018-03-03T13:09:05.613Z,84.97
2018-03-03T13:11:32.365Z,80.65
2018-03-03T13:13:59.051Z,87.20
2018-03-03T13:16:25.709Z,81.85
2018-03-03T13:18:52.359Z,84.75
2018-03-03T13:21:19.108Z,89.55
2018-03-03T13:23:45.764Z,84.20
2018-03-03T13:26:12.480Z,92.57
2018-03-03T13:28:39.167Z,95.05
2018-03-03T13:31:05.848Z,90.03
2018-03-03T13:33:32.511Z,87.20
2018-03-03T13:35:59.253Z,90.35
2018-03-03T13:38:25.991Z,83.53
2018-03-03T13:40:52.733Z,74.43
2018-03-03T13:43:19.480Z,93.35
2018-03-03T13:45:46.212Z,86.03
2018-03-03T13:48:12.899Z,86.75
2018-03-03T13:50:39.560Z,87.95
2018-03-03T13:53:06.221Z,94.57
2018-03-03T13:55:32.876Z,87.20
2018-03-03T13:57:59.557Z,90.25
2018-03-03T14:00:26.257Z,89.03
2018-03-03T14:02:52.998Z,85.00
2018-03-03T14:05:19.676Z,101.97
2018-03-03T14:07:46.332Z,86.30
2018-03-03T14:10:12.988Z,83.12
2018-03-03T14:12:39.660Z,90.85
2018-03-03T14:15:06.316Z,99.43
2018-03-03T14:17:32.975Z,88.75
2018-03-03T14:19:59.661Z,75.30
2018-03-03T14:22:26.967Z,108.78
2018-03-03T14:24:53.771Z,87.45
2018-03-03T14:27:20.445Z,87.07
2018-03-03T14:29:47.154Z,88.25
2018-03-03T14:32:13.811Z,88.28
2018-03-03T14:34:40.480Z,88.70
2018-03-03T14:37:07.131Z,87.10
2018-03-03T14:39:33.791Z,85.18
2018-03-03T14:42:00.462Z,83.55
2018-03-03T14:44:27.120Z,113.50
2018-03-03T14:46:53.828Z,100.15
2018-03-03T14:49:20.519Z,83.43
2018-03-03T14:51:47.203Z,92.05
2018-03-03T14:54:13.948Z,79.53
2018-03-03T14:56:40.697Z,83.28
2018-03-03T14:59:07.375Z,83.22
2018-03-03T15:01:34.041Z,87.10
2018-03-03T15:04:00.717Z,80.12
2018-03-03T15:06:27.457Z,100.82
2018-03-03T15:08:54.153Z,93.90
2018-03-03T15:11:20.945Z,73.75
2018-03-03T15:13:47.609Z,88.00
2018-03-03T15:16:14.274Z,79.05
2018-03-03T15:18:40.954Z,82.18
2018-03-03T15:21:07.613Z,80.28
2018-03-03T15:23:34.343Z,83.53
2018-03-03T15:26:01.017Z,91.85
2018-03-03T15:28:27.825Z,76.93
2018-03-03T15:30:54.485Z,73.72
2018-03-03T15:33:21.204Z,81.37
2018-03-03T15:35:47.874Z,78.97
2018-03-03T15:38:14.584Z,79.82
2018-03-03T15:40:41.324Z,82.88
2018-03-03T15:43:07.981Z,83.35
2018-03-03T15:45:34.708Z,87.45
2018-03-03T15:48:01.380Z,77.57
2018-03-03T15:50:28.090Z,84.75
2018-03-03T15:52:54.828Z,76.00
2018-03-03T15:55:21.501Z,86.75
2018-03-03T15:57:48.165Z,87.78
2018-03-03T16:00:14.821Z,79.18
2018-03-03T16:02:41.589Z,85.50
2018-03-03T16:05:08.241Z,90.80
2018-03-03T16:07:34.897Z,72.68
2018-03-03T16:10:01.574Z,82.80
2018-03-03T16:12:28.229Z,85.12
2018-03-03T16:14:54.898Z,89.43
2018-03-03T16:17:21.606Z,80.82
2018-03-03T16:19:48.272Z,82.32
2018-03-03T16:22:15.009Z,70.20
2018-03-03T16:24:41.700Z,76.10
2018-03-03T16:27:08.492Z,70.35
2018-03-03T16:29:35.149Z,86.18
2018-03-03T16:32:01.873Z,70.18
2018-03-03T16:34:28.617Z,79.50
2018-03-03T16:36:55.277Z,77.12
2018-03-03T16:39:21.953Z,79.90
2018-03-03T16:41:48.609Z,81.47
2018-03-03T16:44:15.378Z,79.53
2018-03-03T16:46:42.223Z,85.43
2018-03-03T16:49:08.984Z,93.90
2018-03-03T16:51:35.705Z,77.07
2018-03-03T16:54:03.261Z,80.28
2018-03-03T16:56:29.920Z,79.95
2018-03-03T16:58:56.644Z,82.35
2018-03-03T17:01:23.325Z,91.03
2018-03-03T17:03:50.025Z,95.70
2018-03-03T17:06:16.693Z,88.57
2018-03-03T17:08:43.361Z,95.87
2018-03-03T17:11:10.062Z,95.45
2018-03-03T17:13:36.784Z,90.00
2018-03-03T17:16:03.536Z,89.72
2018-03-03T17:18:30.372Z,85.87
2018-03-03T17:20:57.033Z,104.12
2018-03-03T17:23:23.704Z,93.40
2018-03-03T17:25:50.360Z,95.53
2018-03-03T17:28:17.030Z,90.85
2018-03-03T17:30:43.740Z,109.65
2018-03-03T17:33:10.396Z,92.43
2018-03-03T17:35:37.061Z,112.20
2018-03-03T17:38:03.791Z,103.32
2018-03-03T17:40:30.541Z,100.55
2018-03-03T17:43:02.102Z,116.82
2018-03-03T17:45:28.784Z,109.18
2018-03-03T17:47:55.466Z,103.85
2018-03-03T17:50:22.127Z,91.40
2018-03-03T17:52:48.804Z,103.38
2018-03-03T17:55:15.464Z,112.22
2018-03-03T17:57:42.126Z,101.97
2018-03-03T18:00:08.873Z,106.07
2018-03-03T18:02:35.532Z,100.03
2018-03-03T18:05:02.188Z,96.90
2018-03-03T18:07:28.889Z,94.25
2018-03-03T18:09:55.637Z,90.90
2018-03-03T18:12:22.370Z,84.30
2018-03-03T18:14:49.041Z,95.25
2018-03-03T18:17:15.701Z,91.15
2018-03-03T18:19:42.358Z,83.50
2018-03-03T18:22:09.133Z,95.95
2018-03-03T18:24:35.788Z,89.18
2018-03-03T18:27:02.456Z,93.30
2018-03-03T18:29:29.150Z,83.90
2018-03-03T18:31:55.893Z,89.20
2018-03-03T18:34:22.641Z,87.62
2018-03-03T18:36:49.377Z,85.30
2018-03-03T18:39:16.032Z,88.85
2018-03-03T18:41:42.751Z,97.85
2018-03-03T18:44:09.500Z,106.80
2018-03-03T18:46:36.237Z,101.75
2018-03-03T18:49:02.892Z,95.22
2018-03-03T18:51:29.565Z,107.70
2018-03-03T18:53:56.260Z,119.90
2018-03-03T18:56:22.918Z,111.45
2018-03-03T18:58:49.641Z,99.20
2018-03-03T19:01:16.306Z,104.40
2018-03-03T19:03:42.974Z,112.40
2018-03-03T19:06:09.764Z,108.87
2018-03-03T19:08:36.439Z,102.05
2018-03-03T19:11:03.112Z,107.43
2018-03-03T19:13:29.781Z,98.32
2018-03-03T19:15:56.525Z,105.93
2018-03-03T19:18:23.369Z,106.30
2018-03-03T19:20:50.117Z,106.40
2018-03-03T19:23:16.777Z,96.80
2018-03-03T19:25:43.492Z,93.12
2018-03-03T19:28:10.244Z,92.90
2018-03-03T19:30:36.968Z,117.37
2018-03-03T19:33:03.818Z,96.95
2018-03-03T19:35:30.569Z,99.03
2018-03-03T19:37:57.233Z,99.45
2018-03-03T19:40:23.941Z,99.30
2018-03-03T19:42:50.689Z,112.05
2018-03-03T19:45:17.350Z,106.65
2018-03-03T19:47:44.017Z,108.70
2018-03-03T19:50:10.697Z,103.12
2018-03-03T19:52:37.356Z,111.22
2018-03-03T19:55:04.085Z,108.03
2018-03-03T19:57:30.823Z,98.20
2018-03-03T19:59:57.568Z,112.28
2018-03-03T20:02:24.306Z,103.53
2018-03-03T20:04:50.987Z,112.18
2018-03-03T20:07:17.685Z,111.45
2018-03-03T20:09:44.345Z,100.12
2018-03-03T20:12:11.022Z,115.47
2018-03-03T20:14:37.685Z,105.28
2018-03-03T20:17:04.346Z,90.55
2018-03-03T20:19:31.021Z,96.37
2018-03-03T20:21:57.684Z,94.35
2018-03-03T20:24:24.361Z,85.97
2018-03-03T20:26:51.144Z,90.25
2018-03-03T20:29:17.849Z,93.20
2018-03-03T20:31:44.504Z,96.70
2018-03-03T20:34:11.233Z,89.93
2018-03-03T20:36:37.921Z,91.70
2018-03-03T20:39:04.569Z,89.22
2018-03-03T20:41:31.352Z,83.43
2018-03-03T20:43:58.009Z,100.28
2018-03-03T20:46:24.728Z,99.75
2018-03-03T20:48:51.401Z,83.25
2018-03-03T20:51:18.061Z,91.78
2018-03-03T20:53:44.722Z,86.18
2018-03-03T20:56:11.401Z,82.45
2018-03-03T20:58:38.134Z,95.22
2018-03-03T21:01:04.792Z,85.95
2018-03-03T21:03:31.528Z,85.72
2018-03-03T21:05:58.189Z,89.45
2018-03-03T21:08:24.893Z,83.60
2018-03-03T21:10:51.561Z,84.05
2018-03-03T21:13:18.221Z,95.03
2018-03-03T21:15:44.877Z,104.20
2018-03-03T21:18:11.561Z,100.18
2018-03-03T21:20:38.292Z,92.85
2018-03-03T21:23:05.044Z,113.22
2018-03-03T21:25:31.772Z,105.15
2018-03-03T21:27:58.519Z,96.93
2018-03-03T21:30:25.259Z,106.03
2018-03-03T21:32:52.105Z,89.68
2018-03-03T21:35:18.777Z,101.62
2018-03-03T21:37:45.489Z,100.22
2018-03-03T21:40:12.165Z,102.72
2018-03-03T21:42:38.821Z,96.72
2018-03-03T21:45:05.483Z,95.35
2018-03-03T21:47:32.256Z,91.15
2018-03-03T21:49:58.916Z,90.70
2018-03-03T21:52:25.586Z,101.75
2018-03-03T21:54:52.269Z,101.40
2018-03-03T21:57:18.929Z,96.63
2018-03-03T21:59:45.613Z,106.57
2018-03-03T22:02:12.289Z,101.53
2018-03-03T22:04:38.948Z,103.22
2018-03-03T22:07:05.605Z,94.15
2018-03-03T22:09:32.315Z,93.03
2018-03-03T22:11:58.998Z,95.07
2018-03-03T22:14:25.684Z,90.12
2018-03-03T22:16:52.356Z,89.50
2018-03-03T22:19:19.075Z,98.00
2018-03-03T22:21:45.733Z,102.10
2018-03-03T22:24:12.405Z,98.00
2018-03-03T22:26:39.086Z,104.82
2018-03-03T22:29:05.744Z,111.03
2018-03-03T22:31:32.421Z,99.87
2018-03-03T22:33:59.085Z,105.95
2018-03-03T22:36:25.750Z,113.47
2018-03-03T22:38:52.485Z,109.55
2018-03-03T22:41:19.226Z,115.80
2018-03-03T22:43:45.970Z,118.87
2018-03-03T22:46:12.646Z,112.50
2018-03-03T22:48:39.321Z,102.80
2018-03-03T22:51:05.977Z,122.03
2018-03-03T22:53:32.653Z,109.85
2018-03-03T22:55:59.317Z,106.68
2018-03-03T22:58:25.973Z,115.20
2018-03-03T23:00:52.649Z,105.45
2018-03-03T23:03:19.308Z,101.68
2018-03-03T23:05:45.968Z,106.53
2018-03-03T23:08:12.640Z,109.90
2018-03-03T23:10:39.302Z,117.10
2018-03-03T23:13:06.053Z,102.45
2018-03-03T23:15:32.728Z,116.28
2018-03-03T23:17:59.384Z,118.57
2018-03-03T23:20:26.049Z,108.97
2018-03-03T23:22:52.809Z,107.40
2018-03-03T23:25:19.472Z,105.68
2018-03-03T23:27:46.133Z,108.90
2018-03-03T23:30:12.830Z,117.80
2018-03-03T23:32:39.570Z,107.37
2018-03-03T23:35:06.309Z,110.53
2018-03-03T23:37:33.061Z,109.65
2018-03-03T23:39:59.721Z,110.45
2018-03-03T23:42:26.384Z,101.22
2018-03-03T23:44:53.085Z,105.37
2018-03-03T23:47:19.740Z,105.87
2018-03-03T23:49:46.412Z,110.10
2018-03-03T23:52:13.200Z,109.87
2018-03-03T23:54:39.865Z,107.95
2018-03-03T23:57:06.533Z,97.00
2018-03-03T23:59:33.205Z,98.82
